createdAt,value
2019-03-22T00:00:10.704Z,71.60
2019-03-22T00:01:23.950Z,67.50
2019-03-22T00:02:37.172Z,67.40
2019-03-22T00:03:50.397Z,68.00
2019-03-22T00:05:04.569Z,65.70
2019-03-22T00:06:17.803Z,65.90
2019-03-22T00:07:31.041Z,70.40
2019-03-22T00:08:44.284Z,70.40
2019-03-22T00:09:57.501Z,69.10
2019-03-22T00:11:10.729Z,68.10
2019-03-22T00:12:23.954Z,68.80
2019-03-22T00:13:37.202Z,67.10
2019-03-22T00:14:50.425Z,67.20
2019-03-22T00:16:03.653Z,66.50
2019-03-22T00:17:16.887Z,66.10
2019-03-22T00:18:30.115Z,65.70
2019-03-22T00:19:43.362Z,69.40
2019-03-22T00:20:56.587Z,67.20
2019-03-22T00:22:09.810Z,69.80
2019-03-22T00:23:23.038Z,68.10
2019-03-22T00:24:36.331Z,67.70
2019-03-22T00:25:49.578Z,66.50
2019-03-22T00:27:02.808Z,67.80
2019-03-22T00:28:16.031Z,68.90
2019-03-22T00:29:32.053Z,69.00
2019-03-22T00:30:45.286Z,68.90
2019-03-22T00:31:58.606Z,69.60
2019-03-22T00:33:11.844Z,69.30
2019-03-22T00:34:25.537Z,69.40
2019-03-22T00:35:38.765Z,68.70
2019-03-22T00:36:51.998Z,67.80
2019-03-22T00:38:05.245Z,69.50
2019-03-22T00:39:18.465Z,70.70
2019-03-22T00:40:31.703Z,69.70
2019-03-22T00:41:44.928Z,71.30
2019-03-22T00:42:58.243Z,69.80
2019-03-22T00:44:11.482Z,68.70
2019-03-22T00:45:24.713Z,70.50
2019-03-22T00:46:37.941Z,70.80
2019-03-22T00:47:51.173Z,70.30
2019-03-22T00:49:04.399Z,69.80
2019-03-22T00:50:17.653Z,69.40
2019-03-22T00:51:30.890Z,70.00
2019-03-22T00:52:44.113Z,69.20
2019-03-22T00:53:57.417Z,68.90
2019-03-22T00:55:10.643Z,69.30
2019-03-22T00:56:23.877Z,69.30
2019-03-22T00:57:37.114Z,68.80
2019-03-22T00:58:50.334Z,69.10
2019-03-22T01:00:14.502Z,68.30
2019-03-22T01:01:27.723Z,69.40
2019-03-22T01:02:40.965Z,71.10
2019-03-22T01:03:54.195Z,71.60
2019-03-22T01:05:08.158Z,72.40
2019-03-22T01:06:21.388Z,73.00
2019-03-22T01:07:34.617Z,72.50
2019-03-22T01:08:47.855Z,72.70
2019-03-22T01:10:01.153Z,70.00
2019-03-22T01:11:14.383Z,70.00
2019-03-22T01:12:27.601Z,69.30
2019-03-22T01:13:40.829Z,70.10
2019-03-22T01:14:54.080Z,71.20
2019-03-22T01:16:07.305Z,72.40
2019-03-22T01:17:20.537Z,72.60
2019-03-22T01:18:33.761Z,74.50
2019-03-22T01:19:46.980Z,73.80
2019-03-22T01:21:00.234Z,74.80
2019-03-22T01:22:13.844Z,74.90
2019-03-22T01:23:27.143Z,73.60
2019-03-22T01:24:40.374Z,73.20
2019-03-22T01:25:53.602Z,73.30
2019-03-22T01:27:06.852Z,73.70
2019-03-22T01:28:20.115Z,73.90
2019-03-22T01:29:33.352Z,75.10
2019-03-22T01:30:46.581Z,74.00
2019-03-22T01:31:59.798Z,73.00
2019-03-22T01:33:13.043Z,73.10
2019-03-22T01:34:26.270Z,73.50
2019-03-22T01:35:40.522Z,73.80
2019-03-22T01:36:53.712Z,74.40
2019-03-22T01:38:06.943Z,73.60
2019-03-22T01:39:20.274Z,73.10
2019-03-22T01:40:33.507Z,73.40
2019-03-22T01:41:46.747Z,74.00
2019-03-22T01:42:59.971Z,74.10
2019-03-22T01:44:13.193Z,75.30
2019-03-22T01:45:26.445Z,75.90
2019-03-22T01:46:39.694Z,77.40
2019-03-22T01:47:52.928Z,77.30
2019-03-22T01:49:06.157Z,77.30
2019-03-22T01:50:19.398Z,78.10
2019-03-22T01:51:32.646Z,77.80
2019-03-22T01:52:45.875Z,77.90
2019-03-22T01:53:59.186Z,77.70
2019-03-22T01:55:12.494Z,77.70
2019-03-22T01:56:25.726Z,77.70
2019-03-22T01:57:38.973Z,76.50
2019-03-22T01:58:52.206Z,76.40
2019-03-22T02:00:07.772Z,76.40
2019-03-22T02:01:20.996Z,75.80
2019-03-22T02:02:34.218Z,75.40
2019-03-22T02:03:47.461Z,75.80
2019-03-22T02:05:00.690Z,75.10
2019-03-22T02:06:13.915Z,75.90
2019-03-22T02:07:27.147Z,75.70
2019-03-22T02:08:40.369Z,75.30
2019-03-22T02:09:53.621Z,75.80
2019-03-22T02:11:06.838Z,75.30
2019-03-22T02:12:20.142Z,75.10
2019-03-22T02:13:33.374Z,75.40
2019-03-22T02:14:46.622Z,76.30
2019-03-22T02:15:59.853Z,76.30
2019-03-22T02:17:13.082Z,76.50
2019-03-22T02:18:26.318Z,77.50
2019-03-22T02:19:39.558Z,77.90
2019-03-22T02:20:52.868Z,78.30
2019-03-22T02:22:06.096Z,79.10
2019-03-22T02:23:19.330Z,79.30
2019-03-22T02:24:32.571Z,80.30
2019-03-22T02:25:45.781Z,80.80
2019-03-22T02:26:59.042Z,79.90
2019-03-22T02:28:12.269Z,81.40
2019-03-22T02:29:25.745Z,81.40
2019-03-22T02:30:38.980Z,80.90
2019-03-22T02:31:52.213Z,80.60
2019-03-22T02:33:05.475Z,79.80
2019-03-22T02:34:18.690Z,79.50
2019-03-22T02:35:31.946Z,80.10
2019-03-22T02:36:45.167Z,81.60
2019-03-22T02:37:58.405Z,81.90
2019-03-22T02:39:11.739Z,81.00
2019-03-22T02:40:25.049Z,81.60
2019-03-22T02:41:38.275Z,82.00
2019-03-22T02:42:51.509Z,84.20
2019-03-22T02:44:04.747Z,85.00
2019-03-22T02:45:17.973Z,85.20
2019-03-22T02:46:31.210Z,84.60
2019-03-22T02:47:44.510Z,83.60
2019-03-22T02:48:57.733Z,84.10
2019-03-22T02:50:18.666Z,84.20
2019-03-22T02:51:26.875Z,84.10
2019-03-22T02:52:40.098Z,85.10
2019-03-22T02:53:53.328Z,85.00
2019-03-22T02:55:07.913Z,86.40
2019-03-22T02:56:21.143Z,86.70
2019-03-22T02:57:34.603Z,86.40
2019-03-22T02:58:47.828Z,85.60
2019-03-22T03:00:01.076Z,86.40
2019-03-22T03:01:14.307Z,86.80
2019-03-22T03:02:27.580Z,87.20
2019-03-22T03:03:40.843Z,88.20
2019-03-22T03:04:54.092Z,87.80
2019-03-22T03:06:07.306Z,87.30
2019-03-22T03:07:20.553Z,88.40
2019-03-22T03:08:33.784Z,88.40
2019-03-22T03:09:47.016Z,88.80
2019-03-22T03:11:00.238Z,89.90
2019-03-22T03:12:13.481Z,90.00
2019-03-22T03:13:26.735Z,90.30
2019-03-22T03:14:39.972Z,90.60
2019-03-22T03:15:53.196Z,90.30
2019-03-22T03:17:06.414Z,90.40
2019-03-22T03:18:19.670Z,90.30
2019-03-22T03:19:32.908Z,90.40
2019-03-22T03:20:46.129Z,90.50
2019-03-22T03:21:59.362Z,90.70
2019-03-22T03:23:12.587Z,90.60
2019-03-22T03:24:25.837Z,91.40
2019-03-22T03:25:39.062Z,91.30
2019-03-22T03:26:52.292Z,90.90
2019-03-22T03:28:05.610Z,90.50
2019-03-22T03:29:18.830Z,90.60
2019-03-22T03:30:32.075Z,90.80
2019-03-22T03:31:45.291Z,90.80
2019-03-22T03:32:58.526Z,91.80
2019-03-22T03:34:11.773Z,92.00
2019-03-22T03:35:25.075Z,92.00
2019-03-22T03:36:38.326Z,92.10
2019-03-22T03:37:51.547Z,92.20
2019-03-22T03:39:07.117Z,91.70
2019-03-22T03:40:20.363Z,91.40
2019-03-22T03:41:33.663Z,91.40
2019-03-22T03:42:46.903Z,91.20
2019-03-22T03:44:00.131Z,91.40
2019-03-22T03:45:33.186Z,92.00
2019-03-22T03:46:46.475Z,91.40
2019-03-22T03:48:04.075Z,91.40
2019-03-22T03:49:17.307Z,91.60
2019-03-22T03:50:30.534Z,91.60
2019-03-22T03:51:43.767Z,91.90
2019-03-22T03:52:57.027Z,91.90
2019-03-22T03:54:10.267Z,91.50
2019-03-22T03:55:23.489Z,91.90
2019-03-22T03:56:36.727Z,92.40
2019-03-22T03:57:49.951Z,92.60
2019-03-22T03:59:03.183Z,91.60
2019-03-22T04:00:16.427Z,91.60
2019-03-22T04:01:29.658Z,91.90
2019-03-22T04:02:42.899Z,91.90
2019-03-22T04:03:56.123Z,91.90
2019-03-22T04:05:09.359Z,91.90
2019-03-22T04:06:22.606Z,92.00
2019-03-22T04:07:35.831Z,92.60
2019-03-22T04:08:49.064Z,92.60
2019-03-22T04:10:02.292Z,92.40
2019-03-22T04:11:15.522Z,92.10
2019-03-22T04:12:28.767Z,92.70
2019-03-22T04:13:41.999Z,93.40
2019-03-22T04:14:55.213Z,93.20
2019-03-22T04:16:08.451Z,93.00
2019-03-22T04:17:21.671Z,92.60
2019-03-22T04:18:34.927Z,93.00
2019-03-22T04:19:48.163Z,92.40
2019-03-22T04:21:01.399Z,92.30
2019-03-22T04:22:14.638Z,92.20
2019-03-22T04:23:28.430Z,92.10
2019-03-22T04:24:41.700Z,91.90
2019-03-22T04:25:54.992Z,91.70
2019-03-22T04:27:08.214Z,91.90
2019-03-22T04:28:21.448Z,91.50
2019-03-22T04:29:37.682Z,91.50
2019-03-22T04:30:50.931Z,91.70
2019-03-22T04:32:04.154Z,91.40
2019-03-22T04:33:17.393Z,91.20
2019-03-22T04:34:30.624Z,91.30
2019-03-22T04:35:43.866Z,91.10
2019-03-22T04:36:57.112Z,91.30
2019-03-22T04:38:10.343Z,91.00
2019-03-22T04:39:23.569Z,90.90
2019-03-22T04:40:39.497Z,90.70
2019-03-22T04:41:52.746Z,90.70
2019-03-22T04:43:05.993Z,91.40
2019-03-22T04:44:19.484Z,91.60
2019-03-22T04:45:32.955Z,91.40
2019-03-22T04:46:46.187Z,91.60
2019-03-22T04:48:01.957Z,92.70
2019-03-22T04:49:16.011Z,93.00
2019-03-22T04:50:29.234Z,92.70
2019-03-22T04:51:42.745Z,92.40
2019-03-22T04:52:55.994Z,93.00
2019-03-22T04:54:09.206Z,93.10
2019-03-22T04:55:22.448Z,93.00
2019-03-22T04:56:35.746Z,93.20
2019-03-22T04:57:48.985Z,92.60
2019-03-22T04:59:02.550Z,92.90
2019-03-22T05:00:15.778Z,92.80
2019-03-22T05:01:29.018Z,92.80
2019-03-22T05:02:42.247Z,93.00
2019-03-22T05:03:55.470Z,92.90
2019-03-22T05:05:08.694Z,92.80
2019-03-22T05:06:21.931Z,92.70
2019-03-22T05:07:35.180Z,92.80
2019-03-22T05:08:48.418Z,92.40
2019-03-22T05:10:01.655Z,92.50
2019-03-22T05:11:14.885Z,92.80
2019-03-22T05:12:28.130Z,93.00
2019-03-22T05:13:41.373Z,93.00
2019-03-22T05:14:54.605Z,92.90
2019-03-22T05:16:09.309Z,92.70
2019-03-22T05:17:22.545Z,92.60
2019-03-22T05:18:35.775Z,92.90
2019-03-22T05:19:50.869Z,92.90
2019-03-22T05:21:04.098Z,93.10
2019-03-22T05:22:17.339Z,93.00
2019-03-22T05:23:30.573Z,92.80
2019-03-22T05:24:44.539Z,92.60
2019-03-22T05:25:57.795Z,92.90
2019-03-22T05:27:11.011Z,93.10
2019-03-22T05:28:24.513Z,92.90
2019-03-22T05:29:38.925Z,93.10
2019-03-22T05:30:55.601Z,92.80
2019-03-22T05:32:11.245Z,93.30
2019-03-22T05:33:24.476Z,93.40
2019-03-22T05:34:37.706Z,93.30
2019-03-22T05:35:50.942Z,93.20
2019-03-22T05:37:04.222Z,92.60
2019-03-22T05:38:17.467Z,92.40
2019-03-22T05:39:33.487Z,92.30
2019-03-22T05:40:46.720Z,92.40
2019-03-22T05:41:59.950Z,93.10
2019-03-22T05:43:13.177Z,93.60
2019-03-22T05:44:26.422Z,93.80
2019-03-22T05:45:39.660Z,94.00
2019-03-22T05:46:52.885Z,94.00
2019-03-22T05:48:06.121Z,94.00
2019-03-22T05:49:19.358Z,94.20
2019-03-22T05:50:32.615Z,94.10
2019-03-22T05:51:45.845Z,94.20
2019-03-22T05:52:59.074Z,94.80
2019-03-22T05:54:12.323Z,94.80
2019-03-22T05:55:25.552Z,94.50
2019-03-22T05:56:38.797Z,94.40
2019-03-22T05:57:52.038Z,94.30
2019-03-22T05:59:05.264Z,94.30
2019-03-22T06:00:18.561Z,94.50
2019-03-22T06:01:31.803Z,94.20
2019-03-22T06:02:45.051Z,94.40
2019-03-22T06:03:58.356Z,94.90
2019-03-22T06:05:11.594Z,94.60
2019-03-22T06:06:24.822Z,94.50
2019-03-22T06:07:38.046Z,94.30
2019-03-22T06:08:51.290Z,93.50
2019-03-22T06:10:05.881Z,93.50
2019-03-22T06:11:19.110Z,93.40
2019-03-22T06:12:32.345Z,93.80
2019-03-22T06:13:45.571Z,93.60
2019-03-22T06:14:58.823Z,93.50
2019-03-22T06:16:12.063Z,93.30
2019-03-22T06:17:25.287Z,93.10
2019-03-22T06:18:38.522Z,93.10
2019-03-22T06:19:51.750Z,92.60
2019-03-22T06:21:05.006Z,92.30
2019-03-22T06:22:18.246Z,92.50
2019-03-22T06:23:31.467Z,91.80
2019-03-22T06:24:44.698Z,91.50
2019-03-22T06:25:57.927Z,91.10
2019-03-22T06:27:11.174Z,91.20
2019-03-22T06:28:24.407Z,91.20
2019-03-22T06:29:37.646Z,90.90
2019-03-22T06:30:50.871Z,91.30
2019-03-22T06:32:04.104Z,91.30
2019-03-22T06:33:17.356Z,91.20
2019-03-22T06:34:30.583Z,91.30
2019-03-22T06:35:43.810Z,91.20
2019-03-22T06:36:57.050Z,91.40
2019-03-22T06:38:10.272Z,91.00
2019-03-22T06:39:23.513Z,90.60
2019-03-22T06:40:36.742Z,90.50
2019-03-22T06:41:49.966Z,90.30
2019-03-22T06:43:03.193Z,90.10
2019-03-22T06:44:16.426Z,90.10
2019-03-22T06:45:29.694Z,90.50
2019-03-22T06:46:42.928Z,90.40
2019-03-22T06:47:56.171Z,90.60
2019-03-22T06:49:09.494Z,91.00
2019-03-22T06:50:22.730Z,90.50
2019-03-22T06:51:35.979Z,90.50
2019-03-22T06:52:51.899Z,89.80
2019-03-22T06:54:04.155Z,90.00
2019-03-22T06:55:17.382Z,89.10
2019-03-22T06:56:30.610Z,90.10
2019-03-22T06:57:43.850Z,90.10
2019-03-22T06:58:57.079Z,89.50
2019-03-22T07:00:11.754Z,88.10
2019-03-22T07:01:24.995Z,88.20
2019-03-22T07:02:38.210Z,87.10
2019-03-22T07:03:51.458Z,85.00
2019-03-22T07:05:06.019Z,85.30
2019-03-22T07:06:19.258Z,85.70
2019-03-22T07:07:32.486Z,85.50
2019-03-22T07:08:45.721Z,86.30
2019-03-22T07:09:58.978Z,85.20
2019-03-22T07:11:12.239Z,84.70
2019-03-22T07:12:25.472Z,84.60
2019-03-22T07:13:38.698Z,84.70
2019-03-22T07:14:51.932Z,84.20
2019-03-22T07:16:05.181Z,84.00
2019-03-22T07:17:18.809Z,82.40
2019-03-22T07:18:32.042Z,81.80
2019-03-22T07:19:45.282Z,81.50
2019-03-22T07:21:00.155Z,82.10
2019-03-22T07:22:13.687Z,84.10
2019-03-22T07:23:26.918Z,85.20
2019-03-22T07:24:40.168Z,84.70
2019-03-22T07:25:53.396Z,82.10
2019-03-22T07:27:06.678Z,82.70
2019-03-22T07:28:19.954Z,81.90
2019-03-22T07:29:33.190Z,79.90
2019-03-22T07:30:46.414Z,79.30
2019-03-22T07:31:59.649Z,80.00
2019-03-22T07:33:12.899Z,81.20
2019-03-22T07:34:26.126Z,80.70
2019-03-22T07:35:39.371Z,80.40
2019-03-22T07:36:52.599Z,80.20
2019-03-22T07:38:05.812Z,80.10
2019-03-22T07:39:19.054Z,78.70
2019-03-22T07:40:32.298Z,78.30
2019-03-22T07:41:45.526Z,78.00
2019-03-22T07:42:58.774Z,78.60
2019-03-22T07:44:12.010Z,78.30
2019-03-22T07:45:25.255Z,78.10
2019-03-22T07:46:38.483Z,78.00
2019-03-22T07:47:51.725Z,76.40
2019-03-22T07:49:04.970Z,76.20
2019-03-22T07:50:18.197Z,75.60
2019-03-22T07:51:31.446Z,75.60
2019-03-22T07:52:44.693Z,74.90
2019-03-22T07:53:57.917Z,72.30
2019-03-22T07:55:11.154Z,71.50
2019-03-22T07:56:24.372Z,73.00
2019-03-22T07:57:37.618Z,72.70
2019-03-22T07:58:50.850Z,70.40
2019-03-22T08:00:07.341Z,71.50
2019-03-22T08:01:20.578Z,70.80
2019-03-22T08:02:33.804Z,70.80
2019-03-22T08:03:47.046Z,69.80
2019-03-22T08:05:00.359Z,68.50
2019-03-22T08:06:13.582Z,68.80
2019-03-22T08:07:26.806Z,68.80
2019-03-22T08:08:40.047Z,69.10
2019-03-22T08:09:53.388Z,68.10
2019-03-22T08:11:07.170Z,69.20
2019-03-22T08:12:20.421Z,72.10
2019-03-22T08:13:33.743Z,68.50
2019-03-22T08:14:47.039Z,66.80
2019-03-22T08:16:00.330Z,64.70
2019-03-22T08:17:13.563Z,67.30
2019-03-22T08:18:26.808Z,66.40
2019-03-22T08:19:40.041Z,67.80
2019-03-22T08:20:53.273Z,66.40
2019-03-22T08:22:06.500Z,65.90
2019-03-22T08:23:21.277Z,66.20
2019-03-22T08:24:34.543Z,65.50
2019-03-22T08:25:47.826Z,64.50
2019-03-22T08:27:01.353Z,64.30
2019-03-22T08:28:14.583Z,63.40
2019-03-22T08:29:27.812Z,61.80
2019-03-22T08:30:43.332Z,63.10
2019-03-22T08:31:55.987Z,60.20
2019-03-22T08:33:09.233Z,60.40
2019-03-22T08:34:22.461Z,60.40
2019-03-22T08:35:35.793Z,58.80
2019-03-22T08:36:49.098Z,59.10
2019-03-22T08:38:02.464Z,60.10
2019-03-22T08:39:15.683Z,60.30
2019-03-22T08:40:29.007Z,59.00
2019-03-22T08:41:42.250Z,58.90
2019-03-22T08:42:55.461Z,58.40
2019-03-22T08:44:08.715Z,58.60
2019-03-22T08:45:21.973Z,59.90
2019-03-22T08:46:35.191Z,58.60
2019-03-22T08:47:48.415Z,57.70
2019-03-22T08:49:01.679Z,57.70
2019-03-22T08:50:14.965Z,59.30
2019-03-22T08:51:29.890Z,58.90
2019-03-22T08:52:43.150Z,59.00
2019-03-22T08:53:56.395Z,57.80
2019-03-22T08:55:09.720Z,58.00
2019-03-22T08:56:23.012Z,57.10
2019-03-22T08:57:36.358Z,57.20
2019-03-22T08:58:49.628Z,57.40
2019-03-22T09:00:03.438Z,56.90
2019-03-22T09:01:16.712Z,56.60
2019-03-22T09:02:30.016Z,56.50
2019-03-22T09:03:43.248Z,55.40
2019-03-22T09:04:56.589Z,55.50
2019-03-22T09:06:11.145Z,54.80
2019-03-22T09:07:24.627Z,54.70
2019-03-22T09:08:38.078Z,55.30
2019-03-22T09:09:51.297Z,54.90
2019-03-22T09:11:04.620Z,54.80
2019-03-22T09:12:19.522Z,52.90
2019-03-22T09:13:32.795Z,55.10
2019-03-22T09:14:46.071Z,52.90
2019-03-22T09:15:59.342Z,53.60
2019-03-22T09:17:12.625Z,52.90
2019-03-22T09:18:25.915Z,54.70
2019-03-22T09:19:39.142Z,52.80
2019-03-22T09:20:52.376Z,52.80
2019-03-22T09:22:06.318Z,52.90
2019-03-22T09:23:19.585Z,50.80
2019-03-22T09:24:39.126Z,53.00
2019-03-22T09:25:47.814Z,51.80
2019-03-22T09:27:01.065Z,51.80
2019-03-22T09:28:14.308Z,51.20
2019-03-22T09:29:27.535Z,52.10
2019-03-22T09:30:40.781Z,52.80
2019-03-22T09:31:54.064Z,54.10
2019-03-22T09:33:07.305Z,53.10
2019-03-22T09:34:32.878Z,53.10
2019-03-22T09:35:35.571Z,50.20
2019-03-22T09:36:48.835Z,49.80
2019-03-22T09:38:12.348Z,49.90
2019-03-22T09:39:17.080Z,49.20
2019-03-22T09:40:30.323Z,48.10
2019-03-22T09:41:43.673Z,48.70
2019-03-22T09:42:56.960Z,48.10
2019-03-22T09:44:10.173Z,47.10
2019-03-22T09:45:23.426Z,46.70
2019-03-22T09:46:36.665Z,46.20
2019-03-22T09:47:49.899Z,45.40
2019-03-22T09:49:03.135Z,47.40
2019-03-22T09:50:16.366Z,47.10
2019-03-22T09:51:29.618Z,46.90
2019-03-22T09:52:42.926Z,47.90
2019-03-22T09:53:56.154Z,45.20
2019-03-22T09:55:13.896Z,43.80
2019-03-22T09:56:24.337Z,45.20
2019-03-22T09:57:37.580Z,45.80
2019-03-22T09:58:50.895Z,45.70
2019-03-22T10:00:06.799Z,44.70
2019-03-22T10:01:24.001Z,44.60
2019-03-22T10:02:35.021Z,45.80
2019-03-22T10:03:48.265Z,43.80
2019-03-22T10:05:01.507Z,43.80
2019-03-22T10:06:14.731Z,44.00
2019-03-22T10:07:27.950Z,43.00
2019-03-22T10:08:41.178Z,41.70
2019-03-22T10:09:54.421Z,44.30
2019-03-22T10:11:07.942Z,43.20
2019-03-22T10:12:21.209Z,42.90
2019-03-22T10:13:34.434Z,44.90
2019-03-22T10:14:47.682Z,44.20
2019-03-22T10:16:00.942Z,42.80
2019-03-22T10:17:14.168Z,43.40
2019-03-22T10:18:27.477Z,42.50
2019-03-22T10:19:42.143Z,42.50
2019-03-22T10:20:55.531Z,42.10
2019-03-22T10:22:08.788Z,40.30
2019-03-22T10:23:22.550Z,40.30
2019-03-22T10:24:35.844Z,40.60
2019-03-22T10:25:49.144Z,42.10
2019-03-22T10:27:05.109Z,40.80
2019-03-22T10:28:17.589Z,43.10
2019-03-22T10:29:30.866Z,41.70
2019-03-22T10:30:44.190Z,41.60
2019-03-22T10:31:57.445Z,40.30
2019-03-22T10:33:22.176Z,40.40
2019-03-22T10:34:25.684Z,39.30
2019-03-22T10:35:38.937Z,39.70
2019-03-22T10:36:52.177Z,41.20
2019-03-22T10:38:15.450Z,41.70
2019-03-22T10:39:20.422Z,40.90
2019-03-22T10:40:33.736Z,41.70
2019-03-22T10:41:47.017Z,40.10
2019-03-22T10:43:00.287Z,40.00
2019-03-22T10:44:15.434Z,40.30
2019-03-22T10:45:28.722Z,40.30
2019-03-22T10:46:42.039Z,39.10
2019-03-22T10:47:55.342Z,39.20
2019-03-22T10:49:08.619Z,39.70
2019-03-22T10:50:21.841Z,40.40
2019-03-22T10:51:35.101Z,40.90
2019-03-22T10:52:48.492Z,41.10
2019-03-22T10:54:01.896Z,41.40
2019-03-22T10:55:29.296Z,41.40
2019-03-22T10:56:30.546Z,40.30
2019-03-22T10:57:43.790Z,40.40
2019-03-22T10:58:57.030Z,42.40
2019-03-22T11:00:15.786Z,41.10
2019-03-22T11:01:29.013Z,41.10
2019-03-22T11:02:42.257Z,42.00
2019-03-22T11:03:55.516Z,42.50
2019-03-22T11:05:08.977Z,42.00
2019-03-22T11:06:26.288Z,41.50
2019-03-22T11:07:37.177Z,41.70
2019-03-22T11:08:50.405Z,41.50
2019-03-22T11:10:06.874Z,41.10
2019-03-22T11:11:20.125Z,40.50
2019-03-22T11:12:33.355Z,41.40
2019-03-22T11:13:46.577Z,41.10
2019-03-22T11:14:59.809Z,41.70
2019-03-22T11:16:13.041Z,41.00
2019-03-22T11:17:26.293Z,40.50
2019-03-22T11:18:39.517Z,39.00
2019-03-22T11:19:52.749Z,40.30
2019-03-22T11:21:05.977Z,40.40
2019-03-22T11:22:19.207Z,39.20
2019-03-22T11:23:32.459Z,39.30
2019-03-22T11:24:45.692Z,39.70
2019-03-22T11:26:04.182Z,39.50
2019-03-22T11:27:13.941Z,38.90
2019-03-22T11:28:27.204Z,39.30
2019-03-22T11:29:40.451Z,38.20
2019-03-22T11:30:53.765Z,38.30
2019-03-22T11:32:12.669Z,38.80
2019-03-22T11:33:22.015Z,39.00
2019-03-22T11:34:35.251Z,37.40
2019-03-22T11:35:48.490Z,38.40
2019-03-22T11:37:01.727Z,37.20
2019-03-22T11:38:14.969Z,36.20
2019-03-22T11:39:28.198Z,35.00
2019-03-22T11:40:41.444Z,35.20
2019-03-22T11:41:54.690Z,34.80
2019-03-22T11:43:08.963Z,34.80
2019-03-22T11:44:22.338Z,33.50
2019-03-22T11:45:35.566Z,32.20
2019-03-22T11:46:48.792Z,32.00
2019-03-22T11:48:02.034Z,31.00
2019-03-22T11:49:15.264Z,29.50
2019-03-22T11:50:29.098Z,28.10
2019-03-22T11:51:42.414Z,27.70
2019-03-22T11:52:55.649Z,27.40
2019-03-22T11:54:08.882Z,27.00
2019-03-22T11:55:22.120Z,27.20
2019-03-22T11:56:35.358Z,26.80
2019-03-22T11:57:48.597Z,25.70
2019-03-22T11:59:01.827Z,25.40
2019-03-22T12:00:26.837Z,23.90
2019-03-22T12:01:40.060Z,24.50
2019-03-22T12:02:53.293Z,24.70
2019-03-22T12:04:06.526Z,23.90
2019-03-22T12:05:20.702Z,24.30
2019-03-22T12:06:33.938Z,24.00
2019-03-22T12:07:47.171Z,24.00
2019-03-22T12:09:00.402Z,23.50
2019-03-22T12:10:16.433Z,23.30
2019-03-22T12:11:29.671Z,22.50
2019-03-22T12:12:42.906Z,22.20
2019-03-22T12:13:56.151Z,23.50
2019-03-22T12:15:11.429Z,24.20
2019-03-22T12:16:24.653Z,22.70
2019-03-22T12:17:37.894Z,22.60
2019-03-22T12:18:51.129Z,22.90
2019-03-22T12:20:07.363Z,22.50
2019-03-22T12:21:20.598Z,22.60
2019-03-22T12:22:33.830Z,22.70
2019-03-22T12:23:47.065Z,20.90
2019-03-22T12:25:00.426Z,20.70
2019-03-22T12:26:13.719Z,21.30
2019-03-22T12:27:36.122Z,22.00
2019-03-22T12:28:41.920Z,21.00
2019-03-22T12:29:55.146Z,21.20
2019-03-22T12:31:08.398Z,20.30
2019-03-22T12:32:21.634Z,21.10
2019-03-22T12:33:35.041Z,21.70
2019-03-22T12:34:48.280Z,21.60
2019-03-22T12:36:01.522Z,21.10
2019-03-22T12:37:14.766Z,20.80
2019-03-22T12:38:28.004Z,21.40
2019-03-22T12:39:41.979Z,21.50
2019-03-22T12:40:55.350Z,21.80
2019-03-22T12:42:08.582Z,21.70
2019-03-22T12:43:21.817Z,21.70
2019-03-22T12:44:35.054Z,20.60
2019-03-22T12:45:48.291Z,20.50
2019-03-22T12:47:01.528Z,21.30
2019-03-22T12:48:14.774Z,21.70
2019-03-22T12:49:28.018Z,22.20
2019-03-22T12:50:41.253Z,22.00
2019-03-22T12:51:54.487Z,23.30
2019-03-22T12:53:07.743Z,21.80
2019-03-22T12:54:20.973Z,21.50
2019-03-22T12:55:34.214Z,22.40
2019-03-22T12:56:47.448Z,22.80
2019-03-22T12:58:00.686Z,22.40
2019-03-22T12:59:13.921Z,23.30
2019-03-22T13:00:27.325Z,22.20
2019-03-22T13:01:40.558Z,21.40
2019-03-22T13:02:53.853Z,22.00
2019-03-22T13:04:07.185Z,21.40
2019-03-22T13:05:20.611Z,21.70
2019-03-22T13:06:33.851Z,21.70
2019-03-22T13:07:47.081Z,21.70
2019-03-22T13:09:00.318Z,21.50
2019-03-22T13:10:16.285Z,21.00
2019-03-22T13:11:29.610Z,20.40
2019-03-22T13:12:42.857Z,19.50
2019-03-22T13:13:56.092Z,20.30
2019-03-22T13:15:09.385Z,21.10
2019-03-22T13:16:23.373Z,20.30
2019-03-22T13:17:36.607Z,20.40
2019-03-22T13:18:50.559Z,21.70
2019-03-22T13:20:06.102Z,20.90
2019-03-22T13:21:19.347Z,20.90
2019-03-22T13:22:32.590Z,21.40
2019-03-22T13:23:45.827Z,21.30
2019-03-22T13:24:59.066Z,20.50
2019-03-22T13:26:15.083Z,20.50
2019-03-22T13:27:28.310Z,20.70
2019-03-22T13:28:41.571Z,20.20
2019-03-22T13:29:54.808Z,21.20
2019-03-22T13:31:08.046Z,20.80
2019-03-22T13:32:21.280Z,20.80
2019-03-22T13:33:34.510Z,20.20
2019-03-22T13:34:47.754Z,20.10
2019-03-22T13:36:00.986Z,19.50
2019-03-22T13:37:14.234Z,20.50
2019-03-22T13:38:27.473Z,19.40
2019-03-22T13:39:40.702Z,19.20
2019-03-22T13:40:53.981Z,19.50
2019-03-22T13:42:07.214Z,18.70
2019-03-22T13:43:20.443Z,18.70
2019-03-22T13:44:33.682Z,17.20
2019-03-22T13:45:46.910Z,16.60
2019-03-22T13:47:00.166Z,17.70
2019-03-22T13:48:13.406Z,18.00
2019-03-22T13:49:26.642Z,17.20
2019-03-22T13:50:39.865Z,17.30
2019-03-22T13:51:53.097Z,17.80
2019-03-22T13:53:06.355Z,17.40
2019-03-22T13:54:19.586Z,17.20
2019-03-22T13:55:32.823Z,18.60
2019-03-22T13:56:46.139Z,19.20
2019-03-22T13:57:59.370Z,19.10
2019-03-22T13:59:12.635Z,18.20
2019-03-22T14:00:25.870Z,17.70
2019-03-22T14:01:39.105Z,17.90
2019-03-22T14:03:02.077Z,17.80
2019-03-22T14:04:07.298Z,18.10
2019-03-22T14:05:20.606Z,17.50
2019-03-22T14:06:33.833Z,16.80
2019-03-22T14:07:47.064Z,17.10
2019-03-22T14:09:00.294Z,17.50
2019-03-22T14:10:35.222Z,15.80
2019-03-22T14:11:48.450Z,16.40
2019-03-22T14:13:03.781Z,14.70
2019-03-22T14:14:17.015Z,14.70
2019-03-22T14:15:30.258Z,15.30
2019-03-22T14:16:43.493Z,15.60
2019-03-22T14:17:57.557Z,15.80
2019-03-22T14:19:10.798Z,15.50
2019-03-22T14:20:24.041Z,15.90
2019-03-22T14:21:37.276Z,16.80
2019-03-22T14:22:50.508Z,16.50
2019-03-22T14:24:03.744Z,16.20
2019-03-22T14:25:16.989Z,15.70
2019-03-22T14:26:30.234Z,15.90
2019-03-22T14:27:43.461Z,15.80
2019-03-22T14:28:56.717Z,15.30
2019-03-22T14:30:10.019Z,14.70
2019-03-22T14:31:23.246Z,14.90
2019-03-22T14:32:36.479Z,14.90
2019-03-22T14:33:49.727Z,15.10
2019-03-22T14:35:03.045Z,15.00
2019-03-22T14:36:16.272Z,15.30
2019-03-22T14:37:29.502Z,15.10
2019-03-22T14:38:44.308Z,14.10
2019-03-22T14:39:57.658Z,15.30
2019-03-22T14:41:10.911Z,14.90
2019-03-22T14:42:24.135Z,14.10
2019-03-22T14:43:37.362Z,14.10
2019-03-22T14:44:50.593Z,13.80
2019-03-22T14:46:03.835Z,13.50
2019-03-22T14:47:17.065Z,12.50
2019-03-22T14:48:30.294Z,12.60
2019-03-22T14:49:43.526Z,12.10
2019-03-22T14:50:56.770Z,12.60
2019-03-22T14:52:09.998Z,12.80
2019-03-22T14:53:23.226Z,12.70
2019-03-22T14:54:36.477Z,13.20
2019-03-22T14:55:49.729Z,12.50
2019-03-22T14:57:02.963Z,12.80
2019-03-22T14:58:16.192Z,13.40
2019-03-22T14:59:32.521Z,13.10
2019-03-22T15:00:45.758Z,12.50
2019-03-22T15:01:58.994Z,11.60
2019-03-22T15:03:24.369Z,11.80
2019-03-22T15:04:37.605Z,12.90
2019-03-22T15:05:51.106Z,13.30
2019-03-22T15:07:04.363Z,12.60
2019-03-22T15:08:17.649Z,13.20
2019-03-22T15:09:30.881Z,13.70
2019-03-22T15:10:44.129Z,14.20
2019-03-22T15:11:57.358Z,13.20
2019-03-22T15:13:10.655Z,13.30
2019-03-22T15:14:43.338Z,13.80
2019-03-22T15:15:58.215Z,14.00
2019-03-22T15:17:25.145Z,14.70
2019-03-22T15:18:40.010Z,16.50
2019-03-22T15:20:11.045Z,17.00
2019-03-22T15:21:42.174Z,17.40
2019-03-22T15:23:02.975Z,17.20
2019-03-22T15:24:34.159Z,17.40
2019-03-22T15:26:04.182Z,18.00
2019-03-22T15:27:25.018Z,18.40
2019-03-22T15:28:39.886Z,18.50
2019-03-22T15:29:57.158Z,18.30
2019-03-22T15:31:26.914Z,19.00
2019-03-22T15:32:58.246Z,19.10
2019-03-22T15:34:22.251Z,19.60
2019-03-22T15:35:42.832Z,20.40
2019-03-22T15:37:00.521Z,20.00
2019-03-22T15:38:18.134Z,20.70
2019-03-22T15:39:50.834Z,21.10
2019-03-22T15:41:04.071Z,21.40
2019-03-22T15:42:17.303Z,20.80
2019-03-22T15:43:30.533Z,21.20
2019-03-22T15:44:43.777Z,21.80
2019-03-22T15:45:57.008Z,21.50
2019-03-22T15:47:10.255Z,22.00
2019-03-22T15:48:23.488Z,22.20
2019-03-22T15:49:36.723Z,22.20